• Join FlightAware (Why Join?)
  • Login
  • US Flag 
12:52AM EST


 

Airport Tracker/Info


-or-


 

Live Flight TrackerFlight Track Log ✈ EGF9800 ✈ 30-Aug-2013 ✈ KSAW - KORD

Flight Track Log - Related Links

Times and Time Zones

All times are in EDT time to prevent confusion due to time zone crossing. See the EGF9800 flight status page for this flight to view local times or setup timezone preferences in your user account.

Time Position Orientation Groundspeed Altitude Reporting Facility
EDT Latitude Longitude Course Direction KTS MPH feet Rate Location/Type
09:09AM 46.3536 -87.3947 320° Northwest 148 170 1,500  Level Minneapolis Center
09:10AM 46.3872 -87.4353 320° Northwest 194 223 3,700 2,220 Climbing Minneapolis Center
09:11AM 46.3317 -87.4458 187° South 246 283 6,200 2,820 Climbing Minneapolis Center
09:12AM 46.2594 -87.4217 167° South 270 311 9,500 3,000 Climbing Minneapolis Center
09:13AM 46.1828 -87.4342 186° South 272 313 12,400 2,580 Climbing Minneapolis Center
09:14AM 46.1167 -87.4489 189° South 278 320 14,800 2,580 Climbing Minneapolis Center
09:15AM 46.0158 -87.4711 189° South 294 338 17,800 2,400 Climbing Minneapolis Center
09:16AM 45.9333 -87.4872 188° South 308 354 19,800 1,920 Climbing Minneapolis Center
09:17AM 45.8400 -87.5072 188° South 333 383 21,800 1,920 Climbing Minneapolis Center
09:18AM 45.7417 -87.5286 189° South 352 405 23,800 1,920 Climbing Minneapolis Center
09:19AM 45.6408 -87.5503 189° South 365 420 25,800 1,560 Climbing Minneapolis Center
09:20AM 45.5353 -87.5725 188° South 380 437 27,100 1,020 Climbing Minneapolis Center
09:21AM 45.3981 -87.6019 189° South 411 473 28,000 420 Climbing Minneapolis Center
09:22AM 45.2778 -87.6289 189° South 431 496 28,000  Level Minneapolis Center
09:23AM 45.1736 -87.6506 188° South 395 455 28,000  Level Minneapolis Center
09:24AM 45.0717 -87.6783 191° South 378 435 28,000 -600 Level Minneapolis Center
09:25AM 44.9611 -87.7092 191° South 398 458 26,800 -1,320 Descending Minneapolis Center
09:26AM 44.8542 -87.7392 191° South 396 456 25,300 -1,560 Descending Minneapolis Center
09:28AM 44.7286 -87.7731 191° South 387 445 23,600 -1,140 Descending Minneapolis Center
09:29AM 44.6264 -87.8000 191° South 378 435 23,000 -300 Descending Minneapolis Center
09:30AM 44.5289 -87.8286 192° South 365 420 23,000  Level Minneapolis Center
09:31AM 44.4322 -87.8544 191° South 373 429 23,000  Level Minneapolis Center
09:32AM 44.3136 -87.8869 191° South 372 428 23,000  Level Minneapolis Center
09:33AM 44.2133 -87.9147 191° South 367 422 23,000  Level Minneapolis Center
09:34AM 44.1131 -87.9417 191° South 366 421 23,000 -420 Level Minneapolis Center
09:35AM 44.0144 -87.9675 191° South 361 415 22,100 -1,980 Descending Minneapolis Center
09:36AM 43.9014 -87.9989 191° South 355 409 18,600 -3,240 Descending Minneapolis Center
09:37AM 43.7889 -88.0289 191° South 353 406 15,300 -2,580 Descending Chicago Center
09:38AM 43.6975 -88.0528 191° South 336 387 13,300 -1,140 Descending Chicago Center
09:39AM 43.6133 -88.0756 191° South 312 359 13,000 -180 Descending Chicago Center
09:40AM 43.5264 -88.0983 191° South 315 362 13,000  Level Chicago Center
09:41AM 43.4394 -88.1214 191° South 314 361 13,000  Level Chicago Center
09:42AM 43.3564 -88.0786 159° South 335 386 13,000 -720 Level Chicago Center
09:43AM 43.2703 -87.9942 144° Southeast 326 375 11,600 -1,020 Descending Chicago Center
09:44AM 43.2014 -87.9253 144° Southeast 310 357 11,000 -300 Descending Chicago Center
09:45AM 43.1306 -87.8556 144° Southeast 312 359 11,000  Level Chicago Center
09:46AM 43.0586 -87.7831 144° Southeast 319 367 11,000 -240 Level Chicago Center
09:47AM 42.9825 -87.7342 155° Southeast 305 351 10,500 -540 Descending Chicago Center
09:48AM 42.9050 -87.6997 162° South 292 336 10,000 -600 Descending Chicago Center
09:49AM 42.8156 -87.6592 162° South 289 333 9,300 -1,080 Descending Chicago Center
09:50AM 42.7408 -87.6394 169° South 275 316 7,800 -1,140 Descending Chicago Center
09:51AM 42.6686 -87.6283 174° South 263 303 7,000 -420 Descending Chicago Center
09:53AM 42.5981 -87.6153 172° South 255 293 7,000  Level Chicago Center
09:54AM 42.5222 -87.6031 173° South 268 308 7,000 -120 Level Chicago Center
09:55AM 42.4414 -87.5883 172° South 254 292 6,800 -540 Descending Chicago Center
09:56AM 42.3722 -87.5736 171° South 250 288 6,000 -420 Descending Chicago Center
09:57AM 42.3053 -87.5650 175° South 240 276 6,000  Level Chicago Center
09:58AM 42.2400 -87.5553 174° South 236 272 6,000 -360 Level Chicago Center
09:59AM 42.1714 -87.5436 173° South 246 283 5,300 -960 Descending Chicago Center
10:00AM 42.0861 -87.5733 195° South 264 304 4,100 -660 Descending Chicago Center
10:01AM 42.0333 -87.6261 217° Southwest 246 283 4,000 -60 Descending Chicago Center
10:02AM 42.0000 -87.6833 232° Southwest 226 260 4,000 -540 Level Chicago TRACON
10:03AM 42.0000 -87.7500 270° West 193 222 3,100 -1,020 Descending Chicago TRACON
10:04AM 42.0000 -87.8167 270° West 171 197 2,000 -1,020 Descending Chicago TRACON
10:05AM 42.0000 -87.8667 270° West 131 151 1,100 -900 Descending Chicago TRACON
10:07AM 41.9667 -87.9000 169° South  Level FlightAware Approximate